createdAt,value
2018-06-03T00:00:32.600Z,95.80
2018-06-03T00:03:35.057Z,95.78
2018-06-03T00:06:37.560Z,95.67
2018-06-03T00:09:40.207Z,95.55
2018-06-03T00:12:42.755Z,95.64
2018-06-03T00:15:45.205Z,95.79
2018-06-03T00:18:47.716Z,95.52
2018-06-03T00:21:51.011Z,95.59
2018-06-03T00:24:53.516Z,95.83
2018-06-03T00:27:56.025Z,95.49
2018-06-03T00:30:59.940Z,95.34
2018-06-03T00:34:02.497Z,95.48
2018-06-03T00:37:04.991Z,95.66
2018-06-03T00:40:07.501Z,95.65
2018-06-03T00:43:09.960Z,95.68
2018-06-03T00:46:12.447Z,95.55
2018-06-03T00:49:14.992Z,95.55
2018-06-03T00:52:17.455Z,95.73
2018-06-03T00:55:19.946Z,96.01
2018-06-03T00:58:22.426Z,96.21
2018-06-03T01:01:24.887Z,96.00
2018-06-03T01:04:27.381Z,96.20
2018-06-03T01:07:29.848Z,96.37
2018-06-03T01:10:32.365Z,96.64
2018-06-03T01:13:34.826Z,96.67
2018-06-03T01:16:37.331Z,96.74
2018-06-03T01:19:39.851Z,96.85
2018-06-03T01:22:42.405Z,96.94
2018-06-03T01:25:44.897Z,96.89
2018-06-03T01:28:47.381Z,96.64
2018-06-03T01:31:49.858Z,96.58
2018-06-03T01:34:52.347Z,96.65
2018-06-03T01:37:54.840Z,97.13
2018-06-03T01:40:57.339Z,97.07
2018-06-03T01:43:59.832Z,97.46
2018-06-03T01:47:02.312Z,97.71
2018-06-03T01:50:04.804Z,97.67
2018-06-03T01:53:07.248Z,97.59
2018-06-03T01:56:09.753Z,97.70
2018-06-03T01:59:12.233Z,97.94
2018-06-03T02:02:14.740Z,98.03
2018-06-03T02:05:17.342Z,97.94
2018-06-03T02:08:19.932Z,97.85
2018-06-03T02:11:22.372Z,97.72
2018-06-03T02:14:24.856Z,97.61
2018-06-03T02:17:27.347Z,97.10
2018-06-03T02:20:29.822Z,97.18
2018-06-03T02:23:32.321Z,97.32
2018-06-03T02:26:34.823Z,97.36
2018-06-03T02:29:39.193Z,97.43
2018-06-03T02:32:41.648Z,97.27
2018-06-03T02:35:44.127Z,97.26
2018-06-03T02:38:46.615Z,97.26
2018-06-03T02:41:49.139Z,97.16
2018-06-03T02:44:51.751Z,97.27
2018-06-03T02:47:54.183Z,97.30
2018-06-03T02:50:56.660Z,97.32
2018-06-03T02:53:59.132Z,97.60
2018-06-03T02:57:02.937Z,97.48
2018-06-03T03:00:05.509Z,97.53
2018-06-03T03:03:08.016Z,97.69
2018-06-03T03:06:10.523Z,97.71
2018-06-03T03:09:12.984Z,97.93
2018-06-03T03:12:15.464Z,98.03
2018-06-03T03:17:05.411Z,97.74
2018-06-03T03:20:07.925Z,97.68
2018-06-03T03:23:10.372Z,97.74
2018-06-03T03:26:12.853Z,97.78
2018-06-03T03:29:15.327Z,97.63
2018-06-03T03:32:17.812Z,97.51
2018-06-03T03:35:20.322Z,97.45
2018-06-03T03:38:22.758Z,97.39
2018-06-03T03:41:25.242Z,97.20
2018-06-03T03:44:27.727Z,97.21
2018-06-03T03:47:30.194Z,97.10
2018-06-03T03:50:32.685Z,97.18
2018-06-03T03:53:35.158Z,97.23
2018-06-03T03:56:37.613Z,97.29
2018-06-03T03:59:40.105Z,97.39
2018-06-03T04:02:42.541Z,97.29
2018-06-03T04:05:45.043Z,97.01
2018-06-03T04:08:47.526Z,96.67
2018-06-03T04:11:50.044Z,96.17
2018-06-03T04:14:52.530Z,95.78
2018-06-03T04:17:55.000Z,94.75
2018-06-03T04:20:57.487Z,93.21
2018-06-03T04:23:59.961Z,91.61
2018-06-03T04:27:02.378Z,88.77
2018-06-03T04:30:04.867Z,85.93
2018-06-03T04:33:07.317Z,83.21
2018-06-03T04:36:09.803Z,82.52
2018-06-03T04:39:12.247Z,81.72
2018-06-03T04:42:14.729Z,83.22
2018-06-03T04:45:17.267Z,84.29
2018-06-03T04:48:19.725Z,85.82
2018-06-03T04:51:22.214Z,86.17
2018-06-03T04:54:24.700Z,87.72
2018-06-03T04:57:27.260Z,88.25
2018-06-03T05:00:29.728Z,88.18
2018-06-03T05:03:32.192Z,88.75
2018-06-03T05:06:34.698Z,88.54
2018-06-03T05:09:37.141Z,88.70
2018-06-03T05:12:39.672Z,87.70
2018-06-03T05:15:42.165Z,88.28
2018-06-03T05:18:44.610Z,88.13
2018-06-03T05:21:47.115Z,88.28
2018-06-03T05:24:49.595Z,88.21
2018-06-03T05:27:52.067Z,88.32
2018-06-03T05:30:54.578Z,88.38
2018-06-03T05:33:57.053Z,88.02
2018-06-03T05:36:59.629Z,87.96
2018-06-03T05:40:02.078Z,87.72
2018-06-03T05:43:04.553Z,86.22
2018-06-03T05:46:07.118Z,86.38
2018-06-03T05:49:09.635Z,85.22
2018-06-03T05:52:12.169Z,85.12
2018-06-03T05:55:14.604Z,84.96
2018-06-03T05:58:17.088Z,83.76
2018-06-03T06:01:19.575Z,83.26
2018-06-03T06:04:22.020Z,81.34
2018-06-03T06:07:24.468Z,80.30
2018-06-03T06:10:26.924Z,79.35
2018-06-03T06:13:29.414Z,78.52
2018-06-03T06:16:31.916Z,79.10
2018-06-03T06:19:34.396Z,78.62
2018-06-03T06:22:36.882Z,76.86
2018-06-03T06:25:39.459Z,75.70
2018-06-03T06:28:41.964Z,74.14
2018-06-03T06:31:44.431Z,73.44
2018-06-03T06:34:46.940Z,72.88
2018-06-03T06:37:49.395Z,72.81
2018-06-03T06:40:51.997Z,70.31
2018-06-03T06:43:54.475Z,71.16
2018-06-03T06:46:56.923Z,70.04
2018-06-03T06:49:59.476Z,68.71
2018-06-03T06:53:01.905Z,68.96
2018-06-03T06:56:04.412Z,68.36
2018-06-03T06:59:06.858Z,68.36
2018-06-03T07:02:09.348Z,68.10
2018-06-03T07:05:11.808Z,66.77
2018-06-03T07:08:14.294Z,67.55
2018-06-03T07:11:16.798Z,65.96
2018-06-03T07:14:19.335Z,66.20
2018-06-03T07:17:21.812Z,65.28
2018-06-03T07:20:24.252Z,65.98
2018-06-03T07:23:26.950Z,68.27
2018-06-03T07:26:29.408Z,72.75
2018-06-03T07:29:31.907Z,75.88
2018-06-03T07:32:34.403Z,74.58
2018-06-03T07:35:36.887Z,76.36
2018-06-03T07:38:39.379Z,74.46
2018-06-03T07:41:41.833Z,74.40
2018-06-03T07:44:44.314Z,73.32
2018-06-03T07:47:46.829Z,72.34
2018-06-03T07:50:49.327Z,71.41
2018-06-03T07:53:51.832Z,67.36
2018-06-03T07:56:54.273Z,67.45
2018-06-03T07:59:56.835Z,68.26
2018-06-03T08:02:59.305Z,66.12
2018-06-03T08:06:01.800Z,69.61
2018-06-03T08:09:04.235Z,68.70
2018-06-03T08:12:06.718Z,66.98
2018-06-03T08:15:09.221Z,67.00
2018-06-03T08:18:11.712Z,68.13
2018-06-03T08:21:14.222Z,67.27
2018-06-03T08:24:16.770Z,68.54
2018-06-03T08:27:19.227Z,67.81
2018-06-03T08:30:21.720Z,68.72
2018-06-03T08:33:24.180Z,69.71
2018-06-03T08:36:26.668Z,68.08
2018-06-03T08:39:29.100Z,67.51
2018-06-03T08:42:31.676Z,67.24
2018-06-03T08:45:34.187Z,68.30
2018-06-03T08:48:36.677Z,66.95
2018-06-03T08:51:39.199Z,65.06
2018-06-03T08:54:41.731Z,63.66
2018-06-03T08:57:44.272Z,64.24
2018-06-03T09:00:46.817Z,62.31
2018-06-03T09:03:49.312Z,65.50
2018-06-03T09:06:51.841Z,64.84
2018-06-03T09:09:54.305Z,61.10
2018-06-03T09:12:56.763Z,59.32
2018-06-03T09:15:59.331Z,61.25
2018-06-03T09:19:01.826Z,62.53
2018-06-03T09:22:04.315Z,60.81
2018-06-03T09:25:06.855Z,62.85
2018-06-03T09:28:09.331Z,62.98
2018-06-03T09:31:11.887Z,62.34
2018-06-03T09:34:14.392Z,61.31
2018-06-03T09:37:17.039Z,65.01
2018-06-03T09:40:19.506Z,67.36
2018-06-03T09:43:21.996Z,70.20
2018-06-03T09:46:24.542Z,70.36
2018-06-03T09:49:27.023Z,72.25
2018-06-03T09:52:29.553Z,72.82
2018-06-03T09:55:32.047Z,73.62
2018-06-03T09:58:34.523Z,74.18
2018-06-03T10:01:37.034Z,73.90
2018-06-03T10:04:39.506Z,72.76
2018-06-03T10:07:42.013Z,72.82
2018-06-03T10:10:44.492Z,73.93
2018-06-03T10:13:47.007Z,72.21
2018-06-03T10:16:49.433Z,71.51
2018-06-03T10:19:51.936Z,72.54
2018-06-03T10:22:54.443Z,71.48
2018-06-03T10:25:57.017Z,71.28
2018-06-03T10:28:59.571Z,70.36
2018-06-03T10:32:02.047Z,69.57
2018-06-03T10:35:04.553Z,68.36
2018-06-03T10:38:07.064Z,70.04
2018-06-03T10:41:09.618Z,69.69
2018-06-03T10:44:12.192Z,68.76
2018-06-03T10:47:14.658Z,68.06
2018-06-03T10:50:17.225Z,68.51
2018-06-03T10:53:19.701Z,65.85
2018-06-03T10:56:22.187Z,66.36
2018-06-03T10:59:24.723Z,64.98
2018-06-03T11:02:27.217Z,66.48
2018-06-03T11:05:29.735Z,64.66
2018-06-03T11:08:32.209Z,65.32
2018-06-03T11:11:34.709Z,63.86
2018-06-03T11:14:37.322Z,64.85
2018-06-03T11:17:39.832Z,64.85
2018-06-03T11:20:42.336Z,62.86
2018-06-03T11:23:44.905Z,62.40
2018-06-03T11:26:47.414Z,63.76
2018-06-03T11:29:49.983Z,64.56
2018-06-03T11:32:52.529Z,64.50
2018-06-03T11:35:55.059Z,61.90
2018-06-03T11:38:57.550Z,62.37
2018-06-03T11:42:00.107Z,61.24
2018-06-03T11:45:02.663Z,60.26
2018-06-03T11:48:05.198Z,60.97
2018-06-03T11:51:07.763Z,59.63
2018-06-03T11:54:10.284Z,60.78
2018-06-03T11:57:12.792Z,60.57
2018-06-03T12:00:15.297Z,61.54
2018-06-03T12:03:17.835Z,61.50
2018-06-03T12:06:20.349Z,59.90
2018-06-03T12:09:22.835Z,60.54
2018-06-03T12:12:25.365Z,61.66
2018-06-03T12:15:27.842Z,58.85
2018-06-03T12:18:30.400Z,59.15
2018-06-03T12:21:32.903Z,58.53
2018-06-03T12:24:35.475Z,58.93
2018-06-03T12:27:38.004Z,60.17
2018-06-03T12:30:40.538Z,59.48
2018-06-03T12:33:43.090Z,59.06
2018-06-03T12:36:45.610Z,56.97
2018-06-03T12:39:48.082Z,57.22
2018-06-03T12:42:50.545Z,60.64
2018-06-03T12:45:53.024Z,60.53
2018-06-03T12:48:55.679Z,59.79
2018-06-03T12:51:58.150Z,59.95
2018-06-03T12:55:00.682Z,58.12
2018-06-03T12:58:03.233Z,59.22
2018-06-03T13:01:05.709Z,58.56
2018-06-03T13:04:08.268Z,59.20
2018-06-03T13:07:10.779Z,60.39
2018-06-03T13:10:13.260Z,56.45
2018-06-03T13:13:15.799Z,57.16
2018-06-03T13:16:18.325Z,56.67
2018-06-03T13:19:20.814Z,59.85
2018-06-03T13:22:23.314Z,57.01
2018-06-03T13:25:25.849Z,54.84
2018-06-03T13:28:28.308Z,54.86
2018-06-03T13:31:30.814Z,53.77
2018-06-03T13:34:33.289Z,54.87
2018-06-03T13:37:35.861Z,52.87
2018-06-03T13:40:38.428Z,52.91
2018-06-03T13:43:40.946Z,53.40
2018-06-03T13:46:43.399Z,52.14
2018-06-03T13:49:45.933Z,55.42
2018-06-03T13:52:48.449Z,54.90
2018-06-03T13:55:50.911Z,52.99
2018-06-03T13:58:53.440Z,52.76
2018-06-03T14:01:56.000Z,51.43
2018-06-03T14:04:58.465Z,52.72
2018-06-03T14:08:00.994Z,53.23
2018-06-03T14:11:03.524Z,51.92
2018-06-03T14:14:06.090Z,53.72
2018-06-03T14:17:08.560Z,54.89
2018-06-03T14:20:11.061Z,55.74
2018-06-03T14:23:13.535Z,54.68
2018-06-03T14:26:16.096Z,55.90
2018-06-03T14:29:18.644Z,56.39
2018-06-03T14:32:21.144Z,58.92
2018-06-03T14:35:23.653Z,55.36
2018-06-03T14:38:26.194Z,56.19
2018-06-03T14:41:28.704Z,55.20
2018-06-03T14:44:31.274Z,57.42
2018-06-03T14:47:33.759Z,59.66
2018-06-03T14:50:36.285Z,60.10
2018-06-03T14:53:38.796Z,61.02
2018-06-03T14:56:41.356Z,61.74
2018-06-03T14:59:43.811Z,62.17
2018-06-03T15:02:46.310Z,61.21
2018-06-03T15:05:48.860Z,62.53
2018-06-03T15:08:51.404Z,63.60
2018-06-03T15:11:53.875Z,64.96
2018-06-03T15:14:56.405Z,64.30
2018-06-03T15:17:58.888Z,63.37
2018-06-03T15:21:01.495Z,64.52
2018-06-03T15:24:04.025Z,65.01
2018-06-03T15:27:06.568Z,66.01
2018-06-03T15:30:09.083Z,65.71
2018-06-03T15:33:11.601Z,65.36
2018-06-03T15:36:14.131Z,64.89
2018-06-03T15:39:21.403Z,65.00
2018-06-03T15:42:23.912Z,65.01
2018-06-03T15:45:26.448Z,65.98
2018-06-03T15:48:29.019Z,65.27
2018-06-03T15:51:31.558Z,65.43
2018-06-03T15:54:34.035Z,64.23
2018-06-03T15:57:36.544Z,64.56
2018-06-03T16:00:39.046Z,64.86
2018-06-03T16:03:41.528Z,64.33
2018-06-03T16:06:44.035Z,65.01
2018-06-03T16:09:46.540Z,65.98
2018-06-03T16:12:49.044Z,65.66
2018-06-03T16:15:51.589Z,65.64
2018-06-03T16:18:54.056Z,64.89
2018-06-03T16:21:56.591Z,65.91
2018-06-03T16:24:59.118Z,65.34
2018-06-03T16:28:01.599Z,66.20
2018-06-03T16:31:04.136Z,63.80
2018-06-03T16:34:06.671Z,66.44
2018-06-03T16:37:09.281Z,61.14
2018-06-03T16:40:11.768Z,61.92
2018-06-03T16:43:14.292Z,61.60
2018-06-03T16:46:16.787Z,65.14
2018-06-03T16:49:19.308Z,64.08
2018-06-03T16:52:21.773Z,63.67
2018-06-03T16:55:24.330Z,63.85
2018-06-03T16:58:26.829Z,62.17
2018-06-03T17:01:29.342Z,62.63
2018-06-03T17:04:31.878Z,61.47
2018-06-03T17:07:34.349Z,61.23
2018-06-03T17:10:36.861Z,61.80
2018-06-03T17:13:39.397Z,64.14
2018-06-03T17:16:41.987Z,64.31
2018-06-03T17:19:44.454Z,62.57
2018-06-03T17:22:46.993Z,65.04
2018-06-03T17:25:49.602Z,64.56
2018-06-03T17:28:52.172Z,64.42
2018-06-03T17:31:54.723Z,64.81
2018-06-03T17:34:57.274Z,65.56
2018-06-03T17:37:59.811Z,66.54
2018-06-03T17:41:02.318Z,67.72
2018-06-03T17:44:04.861Z,68.67
2018-06-03T17:47:07.447Z,69.13
2018-06-03T17:50:09.921Z,68.66
2018-06-03T17:53:12.446Z,69.14
2018-06-03T17:56:15.016Z,68.33
2018-06-03T17:59:17.555Z,66.17
2018-06-03T18:02:20.114Z,64.56
2018-06-03T18:05:22.624Z,63.02
2018-06-03T18:08:25.096Z,62.57
2018-06-03T18:11:27.633Z,63.94
2018-06-03T18:14:31.008Z,66.14
2018-06-03T18:17:36.142Z,66.96
2018-06-03T18:20:42.183Z,67.00
2018-06-03T18:23:44.768Z,68.07
2018-06-03T18:26:47.220Z,68.33
2018-06-03T18:29:49.724Z,68.25
2018-06-03T18:32:52.289Z,68.08
2018-06-03T18:35:54.823Z,68.19
2018-06-03T18:38:57.345Z,69.10
2018-06-03T18:41:59.818Z,69.78
2018-06-03T18:45:02.354Z,70.68
2018-06-03T18:48:04.858Z,71.35
2018-06-03T18:51:26.580Z,71.59
2018-06-03T18:54:29.064Z,73.20
2018-06-03T18:57:31.546Z,73.32
2018-06-03T19:00:34.075Z,74.09
2018-06-03T19:03:36.613Z,74.97
2018-06-03T19:06:39.182Z,75.02
2018-06-03T19:09:41.656Z,75.38
2018-06-03T19:12:44.204Z,76.10
2018-06-03T19:15:47.738Z,76.44
2018-06-03T19:18:50.343Z,76.63
2018-06-03T19:21:52.907Z,77.00
2018-06-03T19:24:55.512Z,77.27
2018-06-03T19:27:58.084Z,77.25
2018-06-03T19:31:01.939Z,77.97
2018-06-03T19:34:04.450Z,78.67
2018-06-03T19:37:07.034Z,79.04
2018-06-03T19:40:09.558Z,79.44
2018-06-03T19:43:12.045Z,79.95
2018-06-03T19:46:14.587Z,80.30
2018-06-03T19:49:17.223Z,78.54
2018-06-03T19:52:19.767Z,79.14
2018-06-03T19:55:22.295Z,79.72
2018-06-03T19:58:24.805Z,80.20
2018-06-03T20:01:27.345Z,80.56
2018-06-03T20:04:29.848Z,80.89
2018-06-03T20:07:32.448Z,81.11
2018-06-03T20:10:35.036Z,81.63
2018-06-03T20:13:37.549Z,81.72
2018-06-03T20:16:40.122Z,81.77
2018-06-03T20:19:42.659Z,81.62
2018-06-03T20:22:45.159Z,82.03
2018-06-03T20:25:47.705Z,82.49
2018-06-03T20:28:56.401Z,82.76
2018-06-03T20:31:58.938Z,83.00
2018-06-03T20:35:01.411Z,83.22
2018-06-03T20:38:03.965Z,82.89
2018-06-03T20:41:06.452Z,82.60
2018-06-03T20:44:08.994Z,82.70
2018-06-03T20:51:27.454Z,82.87
2018-06-03T20:54:31.098Z,83.15
2018-06-03T20:57:34.735Z,83.39
2018-06-03T21:00:38.390Z,83.47
2018-06-03T21:03:42.168Z,83.58
2018-06-03T21:06:45.918Z,83.53
2018-06-03T21:09:49.565Z,83.53
2018-06-03T21:12:53.228Z,83.37
2018-06-03T21:15:56.913Z,83.75
2018-06-03T21:19:00.554Z,84.04
2018-06-03T21:22:04.223Z,83.98
2018-06-03T21:25:07.933Z,83.97
2018-06-03T21:28:11.804Z,83.82
2018-06-03T21:31:15.394Z,83.95
2018-06-03T21:34:19.085Z,84.14
2018-06-03T21:37:22.841Z,84.28
2018-06-03T21:40:26.528Z,84.53
2018-06-03T21:43:31.184Z,84.74
2018-06-03T21:46:34.887Z,84.86
2018-06-03T21:49:38.521Z,84.95
2018-06-03T21:52:42.264Z,84.87
2018-06-03T21:55:46.040Z,84.96
2018-06-03T21:58:49.670Z,85.10
2018-06-03T22:01:53.419Z,84.70
2018-06-03T22:04:57.076Z,84.50
2018-06-03T22:08:00.765Z,84.41
2018-06-03T22:11:04.485Z,84.56
2018-06-03T22:14:08.243Z,84.77
2018-06-03T22:17:12.070Z,85.05
2018-06-03T22:20:15.655Z,85.30
2018-06-03T22:23:20.000Z,85.30
2018-06-03T22:26:23.765Z,85.36
2018-06-03T22:29:27.399Z,85.50
2018-06-03T22:32:31.005Z,85.79
2018-06-03T22:35:34.726Z,86.09
2018-06-03T22:38:38.365Z,85.84
2018-06-03T22:41:42.082Z,85.85
2018-06-03T22:44:45.691Z,86.04
2018-06-03T22:47:49.323Z,85.93
2018-06-03T22:50:52.965Z,85.95
2018-06-03T22:53:56.583Z,86.04
2018-06-03T22:57:41.705Z,85.85
2018-06-03T23:00:45.301Z,85.50
2018-06-03T23:03:48.940Z,85.27
2018-06-03T23:06:52.526Z,85.42
2018-06-03T23:09:56.166Z,85.63
2018-06-03T23:12:59.818Z,85.63
2018-06-03T23:16:03.375Z,85.82
2018-06-03T23:19:06.575Z,85.87
2018-06-03T23:22:10.156Z,85.93
2018-06-03T23:25:13.868Z,85.86
2018-06-03T23:28:17.638Z,85.99
2018-06-03T23:31:21.344Z,86.15
2018-06-03T23:34:24.940Z,86.49
2018-06-03T23:37:28.670Z,86.62
2018-06-03T23:40:32.261Z,86.66
2018-06-03T23:43:35.934Z,86.84
2018-06-03T23:46:39.556Z,87.09
2018-06-03T23:49:43.159Z,87.16
2018-06-03T23:52:46.810Z,87.33
2018-06-03T23:55:50.417Z,87.69
2018-06-03T23:58:54.060Z,87.62
